Tom Marquand

Tom Marquand

Statistiques 2026

  • Courses courues : 256
  • Nb de victoires : 23
  • Nb de places : 71
  • Écart gagnant : 1
  • Réussite à la gagne : 9%
  • Réussite à la place : 28%
Musique : 2p 6p 10p 8p 1p 2p 10p 12p 15p 5p 8p 8p 7p 2p 2p 19p 14p 4p
DateRangCatégorieAlloc.Dist.HippodromeChevalPoidsSpé.
14/06/26 6 Galop 1 000 000€ Chantilly Lilt 57 Plat lire

Rapidement contrainte d'évoluer en troisième épaisseur le nez au vent, a progressivement marqué le pas pour finir.

14/06/26 10 Galop 47 600€ Chantilly Sea Poetry 57 Plat lire

Tout de suite à la pointe du combat, a nettement marqué le pas pour finir.

15/06/26 2 Galop 9 302€ Gb-Windsor Tree Wizard 60 Plat
15/06/26 6 Galop 11 628€ Gb-Windsor Adalo 57,5 Plat
15/06/26 6 Galop 8 372€ Gb-Windsor Bella Delizia 60 Plat
15/06/26 5 Galop 12 558€ Gb-Windsor Hayynah 60 Plat
15/06/26 1 Galop 9 767€ Gb-Windsor Too Hot To Tango 61 Plat
16/06/26 2 Galop 930 233€ Gb-Ascot More Thunder 58 Plat
16/06/26 8 Galop 813 953€ Gb-Ascot Big Mojo 60,5 Plat
16/06/26 11 Galop 139 535€ Gb-Ascot Comfort Zone 60 Plat
16/06/26 15 Galop 145 349€ Gb-Ascot Adelaide River 59,5 Plat
16/06/26 14 Galop 139 535€ Gb-Ascot Yashin 62,5 Plat
17/06/26 10 Galop 308 140€ Gb-Ascot Wareeth 58 Plat
17/06/26 10 Galop 290 698€ Gb-Ascot Falakeyah 58 Plat
17/06/26 7 Galop 203 488€ Gb-Ascot Scoville 57,5 Plat
17/06/26 1 Galop 139 535€ Gb-Ascot Alobayyah 56 Plat
17/06/26 8 Galop 145 349€ Gb-Ascot Green Sovereign 58 Plat
18/06/26 15 Galop 139 535€ Gb-Ascot Atomic City 56 Plat
18/06/26 21 Galop 151 163€ Gb-Ascot Crest Of Fire 55,5 Plat
18/06/26 9 Galop 203 488€ Gb-Ascot Morshdi 58 Plat
18/06/26 1 Galop 139 535€ Gb-Ascot Mezcala 57,5 Plat
19/06/26 15 Galop 145 349€ Gb-Ascot Topaz 58 Plat
19/06/26 2 Galop 813 953€ Gb-Ascot Spicy Marg 57 Plat
19/06/26 6 Galop 813 953€ Gb-Ascot Sukanya 58 Plat
19/06/26 27 Galop 139 535€ Gb-Ascot Zooming 59 Plat
19/06/26 10 Galop 139 535€ Gb-Ascot Dazzling Haze 55,5 Plat
20/06/26 19 Galop 203 488€ Gb-Ascot Savage Mariner 59 Plat
20/06/26 12 Galop 290 698€ Gb-Ascot Santorini Star 58 Plat
20/06/26 1 Galop 1 162 791€ Gb-Ascot Almeraq 60 Plat
20/06/26 6 Galop 203 488€ Gb-Ascot Saber Strike 59 Plat
20/06/26 6 Galop 203 488€ Gb-Ascot Binhareer 61 Plat
20/06/26 5 Galop 139 535€ Gb-Ascot Princling 56 Plat
23/06/26 7 Galop 12 791€ Gb-Newbury Creative Queen 60 Plat
24/06/26 5 Galop 80 460€ Gb-Carlisle Albaydaa 58 Plat
25/06/26 0 Galop 10 345€ Gb-Newcastle Strong Voice 61,5 Plat
25/06/26 6 Galop 40 230€ Gb-Newcastle Eternal Force 62 Plat
25/06/26 7 Galop 40 230€ Gb-Newcastle Ancient Rome 58 Plat
25/06/26 5 Galop 11 494€ Gb-Newcastle Koffee And Kale 62 Plat
27/06/26 14 Galop 28 736€ Gb-York Million Gold 59 Plat
28/06/26 7 Galop 114 943€ Ire-Curragh Crown Of Oaks 61 Plat
28/06/26 5 Galop 1 436 782€ Ire-Curragh Shaihaan 58 Plat
28/06/26 1 Galop 114 943€ Ire-Curragh King Of Earth 57 Plat
29/06/26 2 Galop 11 494€ Gb-Windsor Never Enough 61 Plat
29/06/26 8 Galop 34 483€ Gb-Windsor Invictus Gold 65 Plat
29/06/26 9 Galop 8 276€ Gb-Windsor Happier 59 Plat
29/06/26 5 Galop 21 149€ Gb-Windsor Londoner 64 Plat
29/06/26 6 Galop 8 276€ Gb-Windsor Galactic Glow 61 Plat
29/06/26 0 Galop 9 655€ Gb-Windsor Echo Of Faith 61,5 Plat
04/07/26 9 Galop 191 860€ Gb-Newmarket Sharpen 60 Plat
07/07/26 5 Galop 13 953€ Gb-Pontefract Kinetic Impact 60 Plat